sensor_id;sensor_type;location;lat;lon;timestamp;P1;durP1;ratioP1;P2;durP2;ratioP2
74383;SDS011;62824;52.994;-3.936;2023-03-21T00:01:02;0.57;;;0.40;;
74383;SDS011;62824;52.994;-3.936;2023-03-21T00:03:29;0.75;;;0.30;;
74383;SDS011;62824;52.994;-3.936;2023-03-21T00:05:58;0.47;;;0.20;;
74383;SDS011;62824;52.994;-3.936;2023-03-21T00:08:29;0.60;;;0.38;;
74383;SDS011;62824;52.994;-3.936;2023-03-21T00:10:59;0.52;;;0.30;;
74383;SDS011;62824;52.994;-3.936;2023-03-21T00:13:27;0.80;;;0.30;;
74383;SDS011;62824;52.994;-3.936;2023-03-21T00:15:56;0.45;;;0.35;;
74383;SDS011;62824;52.994;-3.936;2023-03-21T00:18:33;0.30;;;0.30;;
74383;SDS011;62824;52.994;-3.936;2023-03-21T00:21:05;0.32;;;0.22;;
74383;SDS011;62824;52.994;-3.936;2023-03-21T00:23:32;0.65;;;0.20;;
74383;SDS011;62824;52.994;-3.936;2023-03-21T00:25:59;1.02;;;0.30;;
74383;SDS011;62824;52.994;-3.936;2023-03-21T00:28:25;1.58;;;0.57;;
74383;SDS011;62824;52.994;-3.936;2023-03-21T00:30:57;1.15;;;0.55;;
74383;SDS011;62824;52.994;-3.936;2023-03-21T00:33:23;0.77;;;0.40;;
74383;SDS011;62824;52.994;-3.936;2023-03-21T00:35:50;1.35;;;0.50;;
74383;SDS011;62824;52.994;-3.936;2023-03-21T00:38:17;0.57;;;0.50;;
74383;SDS011;62824;52.994;-3.936;2023-03-21T00:40:44;1.23;;;0.70;;
74383;SDS011;62824;52.994;-3.936;2023-03-21T00:43:10;1.58;;;0.80;;
74383;SDS011;62824;52.994;-3.936;2023-03-21T00:45:36;1.42;;;0.80;;
74383;SDS011;62824;52.994;-3.936;2023-03-21T00:48:02;0.88;;;0.73;;
74383;SDS011;62824;52.994;-3.936;2023-03-21T00:50:29;1.77;;;0.80;;
74383;SDS011;62824;52.994;-3.936;2023-03-21T00:52:56;2.25;;;0.80;;
74383;SDS011;62824;52.994;-3.936;2023-03-21T00:55:25;1.95;;;0.70;;
74383;SDS011;62824;52.994;-3.936;2023-03-21T00:57:51;2.83;;;0.95;;
74383;SDS011;62824;52.994;-3.936;2023-03-21T01:00:16;1.85;;;0.80;;
74383;SDS011;62824;52.994;-3.936;2023-03-21T01:02:43;3.10;;;1.00;;
74383;SDS011;62824;52.994;-3.936;2023-03-21T01:05:28;0.98;;;0.77;;
74383;SDS011;62824;52.994;-3.936;2023-03-21T01:08:15;1.38;;;0.60;;
74383;SDS011;62824;52.994;-3.936;2023-03-21T01:10:43;3.63;;;1.80;;
74383;SDS011;62824;52.994;-3.936;2023-03-21T01:13:11;1.33;;;0.60;;
74383;SDS011;62824;52.994;-3.936;2023-03-21T01:15:42;1.73;;;0.80;;
74383;SDS011;62824;52.994;-3.936;2023-03-21T01:18:19;1.38;;;0.80;;
74383;SDS011;62824;52.994;-3.936;2023-03-21T01:20:49;1.30;;;1.02;;
74383;SDS011;62824;52.994;-3.936;2023-03-21T01:23:15;1.85;;;0.80;;
74383;SDS011;62824;52.994;-3.936;2023-03-21T01:25:41;3.58;;;1.10;;
74383;SDS011;62824;52.994;-3.936;2023-03-21T01:28:07;1.45;;;0.98;;
74383;SDS011;62824;52.994;-3.936;2023-03-21T01:30:34;1.40;;;0.85;;
74383;SDS011;62824;52.994;-3.936;2023-03-21T01:33:00;1.88;;;0.80;;
74383;SDS011;62824;52.994;-3.936;2023-03-21T01:35:26;0.85;;;0.77;;
74383;SDS011;62824;52.994;-3.936;2023-03-21T01:37:51;1.20;;;0.60;;
74383;SDS011;62824;52.994;-3.936;2023-03-21T01:40:20;4.13;;;1.08;;
74383;SDS011;62824;52.994;-3.936;2023-03-21T01:42:47;1.85;;;0.90;;
74383;SDS011;62824;52.994;-3.936;2023-03-21T01:48:17;0.95;;;0.73;;
74383;SDS011;62824;52.994;-3.936;2023-03-21T01:50:44;2.38;;;0.85;;
74383;SDS011;62824;52.994;-3.936;2023-03-21T01:53:11;1.23;;;0.90;;
74383;SDS011;62824;52.994;-3.936;2023-03-21T01:55:37;1.20;;;0.50;;
74383;SDS011;62824;52.994;-3.936;2023-03-21T01:58:04;1.20;;;0.57;;
74383;SDS011;62824;52.994;-3.936;2023-03-21T02:00:32;1.17;;;0.60;;
74383;SDS011;62824;52.994;-3.936;2023-03-21T02:03:01;1.70;;;0.90;;
74383;SDS011;62824;52.994;-3.936;2023-03-21T02:06:15;1.00;;;0.55;;
74383;SDS011;62824;52.994;-3.936;2023-03-21T02:08:28;1.30;;;0.80;;
74383;SDS011;62824;52.994;-3.936;2023-03-21T02:10:55;1.23;;;0.60;;
74383;SDS011;62824;52.994;-3.936;2023-03-21T02:13:21;1.35;;;0.55;;
74383;SDS011;62824;52.994;-3.936;2023-03-21T02:16:01;1.13;;;0.52;;
74383;SDS011;62824;52.994;-3.936;2023-03-21T02:35:09;0.60;;;0.22;;
74383;SDS011;62824;52.994;-3.936;2023-03-21T02:38:25;0.22;;;0.20;;
74383;SDS011;62824;52.994;-3.936;2023-03-21T02:43:32;0.20;;;0.20;;
74383;SDS011;62824;52.994;-3.936;2023-03-21T02:48:37;0.30;;;0.10;;
74383;SDS011;62824;52.994;-3.936;2023-03-21T02:51:11;0.70;;;0.13;;
74383;SDS011;62824;52.994;-3.936;2023-03-21T02:53:43;0.20;;;0.20;;
74383;SDS011;62824;52.994;-3.936;2023-03-21T02:56:11;0.20;;;0.20;;
74383;SDS011;62824;52.994;-3.936;2023-03-21T02:58:37;0.30;;;0.30;;
74383;SDS011;62824;52.994;-3.936;2023-03-21T03:01:06;1.13;;;0.25;;
74383;SDS011;62824;52.994;-3.936;2023-03-21T03:03:33;0.20;;;0.20;;
74383;SDS011;62824;52.994;-3.936;2023-03-21T03:06:01;0.38;;;0.22;;
74383;SDS011;62824;52.994;-3.936;2023-03-21T03:19:24;0.75;;;0.60;;
74383;SDS011;62824;52.994;-3.936;2023-03-21T03:22:06;2.72;;;1.05;;
74383;SDS011;62824;52.994;-3.936;2023-03-21T03:24:45;2.35;;;0.75;;
74383;SDS011;62824;52.994;-3.936;2023-03-21T03:27:17;4.90;;;1.00;;
74383;SDS011;62824;52.994;-3.936;2023-03-21T03:29:48;2.45;;;0.80;;
74383;SDS011;62824;52.994;-3.936;2023-03-21T03:37:29;3.47;;;0.95;;
74383;SDS011;62824;52.994;-3.936;2023-03-21T03:42:42;3.00;;;1.38;;
74383;SDS011;62824;52.994;-3.936;2023-03-21T03:45:14;4.85;;;1.10;;
74383;SDS011;62824;52.994;-3.936;2023-03-21T03:47:41;6.10;;;2.08;;
74383;SDS011;62824;52.994;-3.936;2023-03-21T03:55:17;2.28;;;0.88;;
74383;SDS011;62824;52.994;-3.936;2023-03-21T03:57:46;3.83;;;1.27;;
74383;SDS011;62824;52.994;-3.936;2023-03-21T04:00:13;6.75;;;1.40;;
74383;SDS011;62824;52.994;-3.936;2023-03-21T04:02:41;8.85;;;1.50;;
74383;SDS011;62824;52.994;-3.936;2023-03-21T04:05:07;4.43;;;1.33;;
74383;SDS011;62824;52.994;-3.936;2023-03-21T04:07:33;3.03;;;1.13;;
74383;SDS011;62824;52.994;-3.936;2023-03-21T04:09:59;6.22;;;1.42;;
74383;SDS011;62824;52.994;-3.936;2023-03-21T04:12:25;6.68;;;1.80;;
74383;SDS011;62824;52.994;-3.936;2023-03-21T04:14:51;6.15;;;1.70;;
74383;SDS011;62824;52.994;-3.936;2023-03-21T04:17:17;3.50;;;1.45;;
74383;SDS011;62824;52.994;-3.936;2023-03-21T04:19:43;6.18;;;1.58;;
74383;SDS011;62824;52.994;-3.936;2023-03-21T04:22:10;4.60;;;1.10;;
74383;SDS011;62824;52.994;-3.936;2023-03-21T04:24:37;5.82;;;0.98;;
74383;SDS011;62824;52.994;-3.936;2023-03-21T04:27:03;4.53;;;1.02;;
74383;SDS011;62824;52.994;-3.936;2023-03-21T04:29:30;6.68;;;1.33;;
74383;SDS011;62824;52.994;-3.936;2023-03-21T04:31:56;2.50;;;0.73;;
74383;SDS011;62824;52.994;-3.936;2023-03-21T04:34:22;3.15;;;0.80;;
74383;SDS011;62824;52.994;-3.936;2023-03-21T04:36:52;1.45;;;0.50;;
74383;SDS011;62824;52.994;-3.936;2023-03-21T04:39:19;3.78;;;1.00;;
74383;SDS011;62824;52.994;-3.936;2023-03-21T04:41:46;3.63;;;0.75;;
74383;SDS011;62824;52.994;-3.936;2023-03-21T04:44:13;6.93;;;0.93;;
74383;SDS011;62824;52.994;-3.936;2023-03-21T04:46:39;3.03;;;0.80;;
74383;SDS011;62824;52.994;-3.936;2023-03-21T04:49:05;1.88;;;0.82;;
74383;SDS011;62824;52.994;-3.936;2023-03-21T04:51:32;4.82;;;1.00;;
74383;SDS011;62824;52.994;-3.936;2023-03-21T04:53:58;2.95;;;0.90;;
74383;SDS011;62824;52.994;-3.936;2023-03-21T04:56:24;4.40;;;0.90;;
74383;SDS011;62824;52.994;-3.936;2023-03-21T04:59:00;2.88;;;0.90;;
74383;SDS011;62824;52.994;-3.936;2023-03-21T05:01:29;6.25;;;1.00;;
74383;SDS011;62824;52.994;-3.936;2023-03-21T05:03:59;3.60;;;1.02;;
74383;SDS011;62824;52.994;-3.936;2023-03-21T05:06:26;4.85;;;1.10;;
74383;SDS011;62824;52.994;-3.936;2023-03-21T05:08:53;4.45;;;1.50;;
74383;SDS011;62824;52.994;-3.936;2023-03-21T05:11:28;5.15;;;1.27;;
74383;SDS011;62824;52.994;-3.936;2023-03-21T05:13:55;6.90;;;1.48;;
74383;SDS011;62824;52.994;-3.936;2023-03-21T05:16:22;8.30;;;1.77;;
74383;SDS011;62824;52.994;-3.936;2023-03-21T05:18:54;10.03;;;1.90;;
74383;SDS011;62824;52.994;-3.936;2023-03-21T05:21:23;8.98;;;2.20;;
74383;SDS011;62824;52.994;-3.936;2023-03-21T05:23:49;8.75;;;2.28;;
74383;SDS011;62824;52.994;-3.936;2023-03-21T05:26:18;8.90;;;2.35;;
74383;SDS011;62824;52.994;-3.936;2023-03-21T05:28:47;5.90;;;1.88;;
74383;SDS011;62824;52.994;-3.936;2023-03-21T05:31:14;6.57;;;1.67;;
74383;SDS011;62824;52.994;-3.936;2023-03-21T05:33:44;4.80;;;1.40;;
74383;SDS011;62824;52.994;-3.936;2023-03-21T05:36:10;10.02;;;2.10;;
74383;SDS011;62824;52.994;-3.936;2023-03-21T05:38:36;9.73;;;1.90;;
74383;SDS011;62824;52.994;-3.936;2023-03-21T05:41:03;6.18;;;1.55;;
74383;SDS011;62824;52.994;-3.936;2023-03-21T05:43:29;7.13;;;1.85;;
74383;SDS011;62824;52.994;-3.936;2023-03-21T05:45:55;13.60;;;2.08;;
74383;SDS011;62824;52.994;-3.936;2023-03-21T05:48:21;6.65;;;1.70;;
74383;SDS011;62824;52.994;-3.936;2023-03-21T05:50:46;9.13;;;1.70;;
74383;SDS011;62824;52.994;-3.936;2023-03-21T05:53:12;4.68;;;1.35;;
74383;SDS011;62824;52.994;-3.936;2023-03-21T05:55:38;7.93;;;1.50;;
74383;SDS011;62824;52.994;-3.936;2023-03-21T05:58:04;5.05;;;1.40;;
74383;SDS011;62824;52.994;-3.936;2023-03-21T06:00:29;9.52;;;1.30;;
74383;SDS011;62824;52.994;-3.936;2023-03-21T06:02:57;6.35;;;1.30;;
74383;SDS011;62824;52.994;-3.936;2023-03-21T06:05:22;7.88;;;1.70;;
74383;SDS011;62824;52.994;-3.936;2023-03-21T06:07:48;8.82;;;2.25;;
74383;SDS011;62824;52.994;-3.936;2023-03-21T06:10:14;7.18;;;1.65;;
74383;SDS011;62824;52.994;-3.936;2023-03-21T06:12:40;12.30;;;2.05;;
74383;SDS011;62824;52.994;-3.936;2023-03-21T06:15:07;6.05;;;1.67;;
74383;SDS011;62824;52.994;-3.936;2023-03-21T06:17:33;8.77;;;1.60;;
74383;SDS011;62824;52.994;-3.936;2023-03-21T06:19:59;11.20;;;3.28;;
74383;SDS011;62824;52.994;-3.936;2023-03-21T06:22:27;10.07;;;2.22;;
74383;SDS011;62824;52.994;-3.936;2023-03-21T06:24:52;6.95;;;1.67;;
74383;SDS011;62824;52.994;-3.936;2023-03-21T06:27:18;5.65;;;1.67;;
74383;SDS011;62824;52.994;-3.936;2023-03-21T06:29:44;3.15;;;1.10;;
74383;SDS011;62824;52.994;-3.936;2023-03-21T06:32:10;6.03;;;1.45;;
74383;SDS011;62824;52.994;-3.936;2023-03-21T06:34:36;4.43;;;1.10;;
74383;SDS011;62824;52.994;-3.936;2023-03-21T06:37:02;3.58;;;0.98;;
74383;SDS011;62824;52.994;-3.936;2023-03-21T06:39:29;3.15;;;0.70;;
74383;SDS011;62824;52.994;-3.936;2023-03-21T06:41:55;2.63;;;0.60;;
74383;SDS011;62824;52.994;-3.936;2023-03-21T06:44:21;1.20;;;0.70;;
74383;SDS011;62824;52.994;-3.936;2023-03-21T06:46:48;2.05;;;0.70;;
74383;SDS011;62824;52.994;-3.936;2023-03-21T06:49:18;2.80;;;0.80;;
74383;SDS011;62824;52.994;-3.936;2023-03-21T06:51:44;5.18;;;1.15;;
74383;SDS011;62824;52.994;-3.936;2023-03-21T06:54:11;7.95;;;1.98;;
74383;SDS011;62824;52.994;-3.936;2023-03-21T06:56:38;6.95;;;2.15;;
74383;SDS011;62824;52.994;-3.936;2023-03-21T06:59:05;7.30;;;2.13;;
74383;SDS011;62824;52.994;-3.936;2023-03-21T07:01:32;8.18;;;1.77;;
74383;SDS011;62824;52.994;-3.936;2023-03-21T07:03:58;8.95;;;1.65;;
74383;SDS011;62824;52.994;-3.936;2023-03-21T07:06:24;9.77;;;1.77;;
74383;SDS011;62824;52.994;-3.936;2023-03-21T07:08:51;12.40;;;2.22;;
74383;SDS011;62824;52.994;-3.936;2023-03-21T07:11:18;7.47;;;1.60;;
74383;SDS011;62824;52.994;-3.936;2023-03-21T07:13:45;9.52;;;1.45;;
74383;SDS011;62824;52.994;-3.936;2023-03-21T07:16:12;11.95;;;2.00;;
74383;SDS011;62824;52.994;-3.936;2023-03-21T07:18:42;9.48;;;2.38;;
74383;SDS011;62824;52.994;-3.936;2023-03-21T07:21:09;10.10;;;1.90;;
74383;SDS011;62824;52.994;-3.936;2023-03-21T07:23:35;12.60;;;1.95;;
74383;SDS011;62824;52.994;-3.936;2023-03-21T07:26:02;10.98;;;1.83;;
74383;SDS011;62824;52.994;-3.936;2023-03-21T07:28:28;7.85;;;2.05;;
74383;SDS011;62824;52.994;-3.936;2023-03-21T07:30:56;10.90;;;1.73;;
74383;SDS011;62824;52.994;-3.936;2023-03-21T07:33:24;8.68;;;2.03;;
74383;SDS011;62824;52.994;-3.936;2023-03-21T07:35:51;9.98;;;2.35;;
74383;SDS011;62824;52.994;-3.936;2023-03-21T07:38:18;12.65;;;2.83;;
74383;SDS011;62824;52.994;-3.936;2023-03-21T07:40:45;10.18;;;2.05;;
74383;SDS011;62824;52.994;-3.936;2023-03-21T07:43:12;12.32;;;2.50;;
74383;SDS011;62824;52.994;-3.936;2023-03-21T07:45:39;9.00;;;1.80;;
74383;SDS011;62824;52.994;-3.936;2023-03-21T07:48:04;8.45;;;2.33;;
74383;SDS011;62824;52.994;-3.936;2023-03-21T07:50:30;12.38;;;2.58;;
74383;SDS011;62824;52.994;-3.936;2023-03-21T07:52:56;6.85;;;1.83;;
74383;SDS011;62824;52.994;-3.936;2023-03-21T07:55:22;10.05;;;1.77;;
74383;SDS011;62824;52.994;-3.936;2023-03-21T07:57:48;8.98;;;2.15;;
74383;SDS011;62824;52.994;-3.936;2023-03-21T08:00:16;6.70;;;1.75;;
74383;SDS011;62824;52.994;-3.936;2023-03-21T08:02:51;14.50;;;2.17;;
74383;SDS011;62824;52.994;-3.936;2023-03-21T08:05:22;9.75;;;2.20;;
74383;SDS011;62824;52.994;-3.936;2023-03-21T08:07:50;12.82;;;2.35;;
74383;SDS011;62824;52.994;-3.936;2023-03-21T08:10:16;15.38;;;2.10;;
74383;SDS011;62824;52.994;-3.936;2023-03-21T08:12:43;11.93;;;2.70;;
74383;SDS011;62824;52.994;-3.936;2023-03-21T08:15:10;10.88;;;2.30;;
74383;SDS011;62824;52.994;-3.936;2023-03-21T08:17:37;11.90;;;2.15;;
74383;SDS011;62824;52.994;-3.936;2023-03-21T08:20:04;8.43;;;1.70;;
74383;SDS011;62824;52.994;-3.936;2023-03-21T08:22:33;7.55;;;1.77;;
74383;SDS011;62824;52.994;-3.936;2023-03-21T08:24:59;11.48;;;1.45;;
74383;SDS011;62824;52.994;-3.936;2023-03-21T08:27:26;9.48;;;2.38;;
74383;SDS011;62824;52.994;-3.936;2023-03-21T08:29:52;9.77;;;2.40;;
74383;SDS011;62824;52.994;-3.936;2023-03-21T08:32:18;11.20;;;1.70;;
74383;SDS011;62824;52.994;-3.936;2023-03-21T08:34:44;8.90;;;1.90;;
74383;SDS011;62824;52.994;-3.936;2023-03-21T08:37:10;4.78;;;1.67;;
74383;SDS011;62824;52.994;-3.936;2023-03-21T08:39:36;8.98;;;1.77;;
74383;SDS011;62824;52.994;-3.936;2023-03-21T08:42:03;13.52;;;2.47;;
74383;SDS011;62824;52.994;-3.936;2023-03-21T08:44:29;8.65;;;2.03;;
74383;SDS011;62824;52.994;-3.936;2023-03-21T08:46:55;10.88;;;1.30;;
74383;SDS011;62824;52.994;-3.936;2023-03-21T08:49:21;9.57;;;2.13;;
74383;SDS011;62824;52.994;-3.936;2023-03-21T08:51:46;13.80;;;2.28;;
74383;SDS011;62824;52.994;-3.936;2023-03-21T08:54:19;9.55;;;2.53;;
74383;SDS011;62824;52.994;-3.936;2023-03-21T08:59:14;7.55;;;1.63;;
74383;SDS011;62824;52.994;-3.936;2023-03-21T09:01:40;11.07;;;1.95;;
74383;SDS011;62824;52.994;-3.936;2023-03-21T09:04:06;9.45;;;1.95;;
74383;SDS011;62824;52.994;-3.936;2023-03-21T09:06:35;11.70;;;2.47;;
74383;SDS011;62824;52.994;-3.936;2023-03-21T09:09:02;7.93;;;1.77;;
74383;SDS011;62824;52.994;-3.936;2023-03-21T09:11:31;9.90;;;1.85;;
74383;SDS011;62824;52.994;-3.936;2023-03-21T09:13:58;10.40;;;2.50;;
74383;SDS011;62824;52.994;-3.936;2023-03-21T09:16:23;12.00;;;1.83;;
74383;SDS011;62824;52.994;-3.936;2023-03-21T09:18:49;13.50;;;2.97;;
74383;SDS011;62824;52.994;-3.936;2023-03-21T09:21:19;10.02;;;2.00;;
74383;SDS011;62824;52.994;-3.936;2023-03-21T09:23:47;13.27;;;2.63;;
74383;SDS011;62824;52.994;-3.936;2023-03-21T09:26:17;9.43;;;2.85;;
74383;SDS011;62824;52.994;-3.936;2023-03-21T09:28:43;17.40;;;2.78;;
74383;SDS011;62824;52.994;-3.936;2023-03-21T09:31:10;18.30;;;2.63;;
74383;SDS011;62824;52.994;-3.936;2023-03-21T09:33:38;19.48;;;2.78;;
74383;SDS011;62824;52.994;-3.936;2023-03-21T09:36:05;10.35;;;2.60;;
74383;SDS011;62824;52.994;-3.936;2023-03-21T09:38:36;10.20;;;2.30;;
74383;SDS011;62824;52.994;-3.936;2023-03-21T09:41:10;11.27;;;2.17;;
74383;SDS011;62824;52.994;-3.936;2023-03-21T09:46:35;13.35;;;2.28;;
74383;SDS011;62824;52.994;-3.936;2023-03-21T09:49:38;14.38;;;2.60;;
74383;SDS011;62824;52.994;-3.936;2023-03-21T09:52:09;10.48;;;2.50;;
74383;SDS011;62824;52.994;-3.936;2023-03-21T09:54:42;12.38;;;2.53;;
74383;SDS011;62824;52.994;-3.936;2023-03-21T10:00:06;16.27;;;2.30;;
74383;SDS011;62824;52.994;-3.936;2023-03-21T10:02:44;10.85;;;2.22;;
74383;SDS011;62824;52.994;-3.936;2023-03-21T10:05:21;10.82;;;2.42;;
74383;SDS011;62824;52.994;-3.936;2023-03-21T10:11:02;16.33;;;2.28;;
74383;SDS011;62824;52.994;-3.936;2023-03-21T10:13:52;14.90;;;2.25;;
74383;SDS011;62824;52.994;-3.936;2023-03-21T10:16:34;16.92;;;3.53;;
74383;SDS011;62824;52.994;-3.936;2023-03-21T10:19:16;14.52;;;2.45;;
74383;SDS011;62824;52.994;-3.936;2023-03-21T10:21:45;15.68;;;3.17;;
74383;SDS011;62824;52.994;-3.936;2023-03-21T10:24:16;20.88;;;3.38;;
74383;SDS011;62824;52.994;-3.936;2023-03-21T10:26:48;15.40;;;2.63;;
74383;SDS011;62824;52.994;-3.936;2023-03-21T10:29:17;18.10;;;3.40;;
74383;SDS011;62824;52.994;-3.936;2023-03-21T10:31:46;21.38;;;3.05;;
74383;SDS011;62824;52.994;-3.936;2023-03-21T10:34:17;8.73;;;2.33;;
74383;SDS011;62824;52.994;-3.936;2023-03-21T10:36:45;11.85;;;2.35;;
74383;SDS011;62824;52.994;-3.936;2023-03-21T10:41:50;11.88;;;2.50;;
74383;SDS011;62824;52.994;-3.936;2023-03-21T10:44:16;15.75;;;2.45;;
74383;SDS011;62824;52.994;-3.936;2023-03-21T10:46:50;15.23;;;2.67;;
74383;SDS011;62824;52.994;-3.936;2023-03-21T10:49:21;12.48;;;3.10;;
74383;SDS011;62824;52.994;-3.936;2023-03-21T10:51:50;14.90;;;2.40;;
74383;SDS011;62824;52.994;-3.936;2023-03-21T10:54:20;14.32;;;3.00;;
74383;SDS011;62824;52.994;-3.936;2023-03-21T10:56:54;14.32;;;3.60;;
74383;SDS011;62824;52.994;-3.936;2023-03-21T10:59:50;15.60;;;2.50;;
74383;SDS011;62824;52.994;-3.936;2023-03-21T11:05:05;35.08;;;4.00;;
74383;SDS011;62824;52.994;-3.936;2023-03-21T11:07:39;16.10;;;2.08;;
74383;SDS011;62824;52.994;-3.936;2023-03-21T11:10:13;19.48;;;2.58;;
74383;SDS011;62824;52.994;-3.936;2023-03-21T11:12:50;12.00;;;2.35;;
74383;SDS011;62824;52.994;-3.936;2023-03-21T11:15:27;10.52;;;1.90;;
74383;SDS011;62824;52.994;-3.936;2023-03-21T11:17:55;16.63;;;2.50;;
74383;SDS011;62824;52.994;-3.936;2023-03-21T11:20:39;24.83;;;2.28;;
74383;SDS011;62824;52.994;-3.936;2023-03-21T11:23:18;17.98;;;2.90;;
74383;SDS011;62824;52.994;-3.936;2023-03-21T11:25:46;28.48;;;3.58;;
74383;SDS011;62824;52.994;-3.936;2023-03-21T11:28:17;17.40;;;3.17;;
74383;SDS011;62824;52.994;-3.936;2023-03-21T11:31:10;14.82;;;2.40;;
74383;SDS011;62824;52.994;-3.936;2023-03-21T11:33:39;16.48;;;2.78;;
74383;SDS011;62824;52.994;-3.936;2023-03-21T11:38:51;18.77;;;3.05;;
74383;SDS011;62824;52.994;-3.936;2023-03-21T11:41:24;18.38;;;2.80;;
74383;SDS011;62824;52.994;-3.936;2023-03-21T11:43:55;20.42;;;3.10;;
74383;SDS011;62824;52.994;-3.936;2023-03-21T11:46:26;27.30;;;3.85;;
74383;SDS011;62824;52.994;-3.936;2023-03-21T11:48:55;11.50;;;2.67;;
74383;SDS011;62824;52.994;-3.936;2023-03-21T11:51:25;12.60;;;2.40;;
74383;SDS011;62824;52.994;-3.936;2023-03-21T11:54:17;10.27;;;2.05;;
74383;SDS011;62824;52.994;-3.936;2023-03-21T11:56:50;11.32;;;2.63;;
74383;SDS011;62824;52.994;-3.936;2023-03-21T11:59:33;13.35;;;2.42;;
74383;SDS011;62824;52.994;-3.936;2023-03-21T12:05:01;15.50;;;2.33;;
74383;SDS011;62824;52.994;-3.936;2023-03-21T12:16:04;7.40;;;1.45;;
74383;SDS011;62824;52.994;-3.936;2023-03-21T12:18:48;8.13;;;2.47;;
74383;SDS011;62824;52.994;-3.936;2023-03-21T12:21:26;12.35;;;2.08;;
74383;SDS011;62824;52.994;-3.936;2023-03-21T12:29:44;12.10;;;2.08;;
74383;SDS011;62824;52.994;-3.936;2023-03-21T12:32:29;11.20;;;2.83;;
74383;SDS011;62824;52.994;-3.936;2023-03-21T12:35:13;13.98;;;1.83;;
74383;SDS011;62824;52.994;-3.936;2023-03-21T12:48:46;12.85;;;2.00;;
74383;SDS011;62824;52.994;-3.936;2023-03-21T12:51:20;13.95;;;1.98;;
74383;SDS011;62824;52.994;-3.936;2023-03-21T12:57:22;9.80;;;1.73;;
74383;SDS011;62824;52.994;-3.936;2023-03-21T13:04:46;14.20;;;3.88;;
74383;SDS011;62824;52.994;-3.936;2023-03-21T13:07:24;11.17;;;1.80;;
74383;SDS011;62824;52.994;-3.936;2023-03-21T13:09:53;12.27;;;2.40;;
74383;SDS011;62824;52.994;-3.936;2023-03-21T13:13:10;14.57;;;2.40;;
74383;SDS011;62824;52.994;-3.936;2023-03-21T13:15:38;8.65;;;1.95;;
74383;SDS011;62824;52.994;-3.936;2023-03-21T13:18:29;15.70;;;2.33;;
74383;SDS011;62824;52.994;-3.936;2023-03-21T13:23:37;11.38;;;2.58;;
74383;SDS011;62824;52.994;-3.936;2023-03-21T13:26:07;9.77;;;2.40;;
74383;SDS011;62824;52.994;-3.936;2023-03-21T13:28:35;8.48;;;1.90;;
74383;SDS011;62824;52.994;-3.936;2023-03-21T13:33:47;11.60;;;2.58;;
74383;SDS011;62824;52.994;-3.936;2023-03-21T13:36:15;17.45;;;2.78;;
74383;SDS011;62824;52.994;-3.936;2023-03-21T13:38:53;9.65;;;2.15;;
74383;SDS011;62824;52.994;-3.936;2023-03-21T13:41:31;14.55;;;2.80;;
74383;SDS011;62824;52.994;-3.936;2023-03-21T13:53:59;19.23;;;4.63;;
74383;SDS011;62824;52.994;-3.936;2023-03-21T13:56:27;12.25;;;3.53;;
74383;SDS011;62824;52.994;-3.936;2023-03-21T13:59:01;19.58;;;4.90;;
74383;SDS011;62824;52.994;-3.936;2023-03-21T14:01:38;11.70;;;3.13;;
74383;SDS011;62824;52.994;-3.936;2023-03-21T14:04:19;14.15;;;3.35;;
74383;SDS011;62824;52.994;-3.936;2023-03-21T14:06:54;14.35;;;2.85;;
74383;SDS011;62824;52.994;-3.936;2023-03-21T14:11:49;13.13;;;2.67;;
74383;SDS011;62824;52.994;-3.936;2023-03-21T14:14:16;9.50;;;2.53;;
74383;SDS011;62824;52.994;-3.936;2023-03-21T14:16:45;14.98;;;2.50;;
74383;SDS011;62824;52.994;-3.936;2023-03-21T14:19:10;10.07;;;1.92;;
74383;SDS011;62824;52.994;-3.936;2023-03-21T14:21:37;11.82;;;2.53;;
74383;SDS011;62824;52.994;-3.936;2023-03-21T14:24:11;14.57;;;2.88;;
74383;SDS011;62824;52.994;-3.936;2023-03-21T14:26:42;10.65;;;1.90;;
74383;SDS011;62824;52.994;-3.936;2023-03-21T14:29:14;13.10;;;3.10;;
74383;SDS011;62824;52.994;-3.936;2023-03-21T14:31:49;11.13;;;2.88;;
74383;SDS011;62824;52.994;-3.936;2023-03-21T14:34:15;8.57;;;1.88;;
74383;SDS011;62824;52.994;-3.936;2023-03-21T14:36:41;12.43;;;2.35;;
74383;SDS011;62824;52.994;-3.936;2023-03-21T14:39:13;10.95;;;2.13;;
74383;SDS011;62824;52.994;-3.936;2023-03-21T14:41:49;12.45;;;3.83;;
74383;SDS011;62824;52.994;-3.936;2023-03-21T14:44:18;21.38;;;3.00;;
74383;SDS011;62824;52.994;-3.936;2023-03-21T14:49:30;9.88;;;2.42;;
74383;SDS011;62824;52.994;-3.936;2023-03-21T14:51:59;13.48;;;2.25;;
74383;SDS011;62824;52.994;-3.936;2023-03-21T14:54:27;11.68;;;2.65;;
74383;SDS011;62824;52.994;-3.936;2023-03-21T14:56:59;13.35;;;3.95;;
74383;SDS011;62824;52.994;-3.936;2023-03-21T14:59:31;11.35;;;2.25;;
74383;SDS011;62824;52.994;-3.936;2023-03-21T15:02:01;11.80;;;2.25;;
74383;SDS011;62824;52.994;-3.936;2023-03-21T15:04:37;13.15;;;2.40;;
74383;SDS011;62824;52.994;-3.936;2023-03-21T15:07:03;15.20;;;3.17;;
74383;SDS011;62824;52.994;-3.936;2023-03-21T15:09:32;10.85;;;2.88;;
74383;SDS011;62824;52.994;-3.936;2023-03-21T15:11:59;10.80;;;1.77;;
74383;SDS011;62824;52.994;-3.936;2023-03-21T15:14:30;7.93;;;2.72;;
74383;SDS011;62824;52.994;-3.936;2023-03-21T15:16:58;8.40;;;1.85;;
74383;SDS011;62824;52.994;-3.936;2023-03-21T15:19:30;12.15;;;1.80;;
74383;SDS011;62824;52.994;-3.936;2023-03-21T15:22:03;7.20;;;1.77;;
74383;SDS011;62824;52.994;-3.936;2023-03-21T15:24:37;11.20;;;1.80;;
74383;SDS011;62824;52.994;-3.936;2023-03-21T15:27:10;10.98;;;2.67;;
74383;SDS011;62824;52.994;-3.936;2023-03-21T15:29:43;12.15;;;2.25;;
74383;SDS011;62824;52.994;-3.936;2023-03-21T15:32:13;14.43;;;2.22;;
74383;SDS011;62824;52.994;-3.936;2023-03-21T15:34:42;10.48;;;2.17;;
74383;SDS011;62824;52.994;-3.936;2023-03-21T15:37:23;15.55;;;2.63;;
74383;SDS011;62824;52.994;-3.936;2023-03-21T15:39:51;12.15;;;2.70;;
74383;SDS011;62824;52.994;-3.936;2023-03-21T15:44:54;10.88;;;2.17;;
74383;SDS011;62824;52.994;-3.936;2023-03-21T15:50:34;17.20;;;2.85;;
74383;SDS011;62824;52.994;-3.936;2023-03-21T15:53:10;8.40;;;2.03;;
74383;SDS011;62824;52.994;-3.936;2023-03-21T15:56:14;10.95;;;2.00;;
74383;SDS011;62824;52.994;-3.936;2023-03-21T15:58:44;7.90;;;2.30;;
74383;SDS011;62824;52.994;-3.936;2023-03-21T16:01:19;4.90;;;1.90;;
74383;SDS011;62824;52.994;-3.936;2023-03-21T16:03:47;11.82;;;1.90;;
74383;SDS011;62824;52.994;-3.936;2023-03-21T16:06:21;7.40;;;1.77;;
74383;SDS011;62824;52.994;-3.936;2023-03-21T16:11:39;6.10;;;1.55;;
74383;SDS011;62824;52.994;-3.936;2023-03-21T16:14:06;8.40;;;2.15;;
74383;SDS011;62824;52.994;-3.936;2023-03-21T16:16:33;6.15;;;2.33;;
74383;SDS011;62824;52.994;-3.936;2023-03-21T16:18:59;12.40;;;2.60;;
74383;SDS011;62824;52.994;-3.936;2023-03-21T16:21:27;10.02;;;2.40;;
74383;SDS011;62824;52.994;-3.936;2023-03-21T16:23:54;16.58;;;2.40;;
74383;SDS011;62824;52.994;-3.936;2023-03-21T16:26:29;13.07;;;2.15;;
74383;SDS011;62824;52.994;-3.936;2023-03-21T16:28:57;10.30;;;2.03;;
74383;SDS011;62824;52.994;-3.936;2023-03-21T16:31:24;10.07;;;1.98;;
74383;SDS011;62824;52.994;-3.936;2023-03-21T16:33:51;7.40;;;1.85;;
74383;SDS011;62824;52.994;-3.936;2023-03-21T16:36:23;10.65;;;2.80;;
74383;SDS011;62824;52.994;-3.936;2023-03-21T16:38:50;4.97;;;1.25;;
74383;SDS011;62824;52.994;-3.936;2023-03-21T16:41:17;12.43;;;1.90;;
74383;SDS011;62824;52.994;-3.936;2023-03-21T16:43:43;12.25;;;1.70;;
74383;SDS011;62824;52.994;-3.936;2023-03-21T16:46:16;11.23;;;1.70;;
74383;SDS011;62824;52.994;-3.936;2023-03-21T16:48:44;11.60;;;2.20;;
74383;SDS011;62824;52.994;-3.936;2023-03-21T16:51:12;11.50;;;2.20;;
74383;SDS011;62824;52.994;-3.936;2023-03-21T16:53:40;8.45;;;2.33;;
74383;SDS011;62824;52.994;-3.936;2023-03-21T16:56:09;9.52;;;1.83;;
74383;SDS011;62824;52.994;-3.936;2023-03-21T16:58:48;9.73;;;1.93;;